Time;durP1;ratioP1;P1;durP2;ratioP2;P2;SDS_P1;SDS_P2;PMS_P1;PMS_P2;Temp;Humidity;BMP_temperature;BMP_pressure;BME280_temperature;BME280_humidity;BME280_pressure;Samples;Min_cycle;Max_cycle;Signal;HPM_P1;HPM_P2
2022/01/01 00:01:19;;;;;;;14.55;9.02;;;12.60;99.90;;;;;;5011347;28;20030;-69
2022/01/01 00:03:45;;;;;;;11.75;8.02;;;12.60;99.90;;;;;;5011228;28;20398;-70
2022/01/01 00:06:11;;;;;;;10.02;7.82;;;12.60;99.90;;;;;;5012094;28;20034;-68
2022/01/01 00:08:36;;;;;;;15.07;9.38;;;12.60;99.90;;;;;;5011599;28;20033;-69
2022/01/01 00:11:02;;;;;;;15.65;9.27;;;12.50;99.90;;;;;;5009323;28;20387;-71
2022/01/01 00:13:27;;;;;;;16.92;8.38;;;12.60;99.90;;;;;;5010029;28;20030;-69
2022/01/01 00:15:53;;;;;;;16.60;10.70;;;12.70;99.90;;;;;;5012561;28;20026;-67
2022/01/01 00:18:19;;;;;;;20.60;13.60;;;12.70;99.90;;;;;;5014608;28;20464;-69
2022/01/01 00:20:44;;;;;;;12.48;9.38;;;12.60;99.90;;;;;;5014940;28;20018;-68
2022/01/01 00:23:10;;;;;;;11.82;9.68;;;12.70;99.90;;;;;;5014738;28;20037;-69
2022/01/01 00:25:36;;;;;;;16.88;8.40;;;12.70;99.90;;;;;;5015050;28;20471;-70
2022/01/01 00:28:01;;;;;;;13.40;8.43;;;12.60;99.90;;;;;;5014542;28;20168;-68
2022/01/01 00:30:27;;;;;;;13.82;9.27;;;12.60;99.90;;;;;;5014898;28;20087;-69
2022/01/01 00:32:52;;;;;;;19.50;9.13;;;12.60;99.90;;;;;;5013940;28;20037;-68
2022/01/01 00:35:18;;;;;;;12.38;9.10;;;12.60;99.90;;;;;;5013884;28;20025;-69
2022/01/01 00:37:44;;;;;;;13.23;8.50;;;12.50;99.90;;;;;;5014938;28;20026;-67
2022/01/01 00:40:10;;;;;;;12.30;9.52;;;12.50;99.90;;;;;;5013267;28;20096;-68
2022/01/01 00:42:35;;;;;;;19.48;10.13;;;12.50;99.90;;;;;;5014968;28;20030;-66
2022/01/01 00:45:01;;;;;;;14.18;10.25;;;12.50;99.90;;;;;;5014156;28;20037;-69
2022/01/01 00:47:27;;;;;;;16.13;9.68;;;12.50;99.90;;;;;;5014242;28;20100;-67
2022/01/01 00:49:52;;;;;;;19.58;12.02;;;12.40;99.90;;;;;;5014071;28;20403;-69
2022/01/01 00:52:18;;;;;;;19.23;11.07;;;12.50;99.90;;;;;;5014845;28;20476;-70
2022/01/01 00:54:43;;;;;;;15.77;10.15;;;12.50;99.90;;;;;;5013730;28;20068;-68
2022/01/01 00:57:09;;;;;;;16.50;9.10;;;12.50;99.90;;;;;;5016030;28;20449;-71
2022/01/01 00:59:35;;;;;;;14.73;9.68;;;12.40;99.90;;;;;;5014824;28;20101;-69
2022/01/01 01:02:03;;;;;;;15.25;9.35;;;12.50;99.90;;;;;;5013304;28;20058;-68
2022/01/01 01:04:29;;;;;;;16.17;9.98;;;12.50;99.90;;;;;;5013657;28;20025;-66
2022/01/01 01:06:55;;;;;;;13.82;10.15;;;12.50;99.90;;;;;;5014110;28;20470;-67
2022/01/01 01:09:20;;;;;;;16.20;10.00;;;12.40;99.90;;;;;;5013375;28;20084;-68
2022/01/01 01:11:48;;;;;;;11.75;8.43;;;12.40;99.90;;;;;;5014444;28;20060;-69
2022/01/01 01:14:22;;;;;;;12.45;9.45;;;12.50;99.90;;;;;;5014342;28;20022;-68
2022/01/01 01:16:49;;;;;;;17.38;8.95;;;12.50;99.90;;;;;;5014876;28;20022;-76
2022/01/01 01:19:16;;;;;;;14.55;8.85;;;12.50;99.90;;;;;;5014593;28;20105;-76
2022/01/01 01:21:43;;;;;;;13.45;8.65;;;12.40;99.90;;;;;;5012178;28;20022;-69
2022/01/01 01:24:10;;;;;;;12.38;7.82;;;12.30;99.90;;;;;;5014911;28;20081;-68
2022/01/01 01:26:35;;;;;;;14.23;9.05;;;12.40;99.90;;;;;;5014282;28;20026;-73
2022/01/01 01:29:03;;;;;;;18.70;8.88;;;12.40;99.90;;;;;;5012711;28;20022;-68
2022/01/01 01:31:30;;;;;;;13.20;7.63;;;12.40;99.90;;;;;;5014069;28;20074;-68
2022/01/01 01:33:57;;;;;;;9.90;7.22;;;12.40;99.90;;;;;;5012504;28;20079;-68
2022/01/01 01:36:24;;;;;;;12.95;10.20;;;12.40;99.90;;;;;;5014429;28;20073;-68
2022/01/01 01:38:50;;;;;;;13.05;7.28;;;12.40;99.90;;;;;;5013579;28;20026;-68
2022/01/01 01:41:16;;;;;;;11.07;7.85;;;12.30;99.90;;;;;;5014744;28;20475;-67
2022/01/01 01:43:42;;;;;;;14.90;8.43;;;12.40;99.90;;;;;;5014278;28;20034;-68
2022/01/01 01:46:12;;;;;;;10.90;7.50;;;12.40;99.90;;;;;;5012833;28;20034;-67
2022/01/01 01:48:38;;;;;;;10.40;7.30;;;12.50;99.90;;;;;;5014418;28;20014;-69
2022/01/01 01:51:04;;;;;;;8.88;7.22;;;12.50;99.90;;;;;;5012441;28;20113;-67
2022/01/01 01:53:33;;;;;;;8.82;6.50;;;12.40;99.90;;;;;;5014406;28;20025;-71
2022/01/01 01:56:02;;;;;;;10.18;7.68;;;12.50;99.90;;;;;;5011978;28;20522;-68
2022/01/01 01:58:30;;;;;;;9.20;7.18;;;12.50;99.90;;;;;;5014188;28;20022;-69
2022/01/01 02:01:20;;;;;;;8.07;6.50;;;12.50;99.90;;;;;;5012551;28;20483;-68
2022/01/01 02:03:42;;;;;;;8.98;6.75;;;12.50;99.90;;;;;;5013389;28;20117;-68
2022/01/01 02:06:08;;;;;;;9.88;6.88;;;12.60;99.90;;;;;;5010198;28;20426;-67
2022/01/01 02:08:35;;;;;;;11.57;6.47;;;12.60;99.90;;;;;;5012620;28;20463;-67
2022/01/01 02:11:02;;;;;;;7.88;5.65;;;12.60;99.90;;;;;;5011638;28;20029;-68
2022/01/01 02:18:51;;;;;;;7.57;5.78;;;12.60;99.90;;;;;;5013367;28;20455;-67
2022/01/01 02:21:18;;;;;;;8.57;6.13;;;12.60;99.90;;;;;;5010487;28;20037;-68
2022/01/01 02:23:46;;;;;;;8.55;6.25;;;12.70;99.90;;;;;;5011116;28;20328;-66
2022/01/01 02:26:15;;;;;;;8.50;5.95;;;12.60;99.90;;;;;;5011746;28;20026;-71
2022/01/01 02:28:46;;;;;;;13.23;6.55;;;12.60;99.90;;;;;;5013472;28;20411;-67
2022/01/01 02:31:12;;;;;;;11.37;5.10;;;12.60;99.90;;;;;;5012830;28;20246;-69
2022/01/01 02:33:39;;;;;;;7.05;4.90;;;12.50;99.90;;;;;;5014422;28;20265;-67
2022/01/01 02:36:06;;;;;;;6.47;5.47;;;12.60;99.90;;;;;;5012941;28;20498;-67
2022/01/01 02:38:36;;;;;;;7.40;5.07;;;12.40;99.90;;;;;;5011477;28;20017;-68
2022/01/01 02:41:02;;;;;;;7.70;5.10;;;12.40;99.90;;;;;;5012845;28;20018;-68
2022/01/01 02:43:28;;;;;;;11.07;6.90;;;12.30;99.90;;;;;;5011992;28;20348;-68
2022/01/01 02:45:55;;;;;;;6.53;4.95;;;12.40;99.90;;;;;;5012996;28;20024;-66
2022/01/01 02:48:21;;;;;;;7.85;5.18;;;12.40;99.90;;;;;;5012429;28;20033;-69
2022/01/01 02:50:50;;;;;;;8.55;5.57;;;12.40;99.90;;;;;;5012906;28;20108;-67
2022/01/01 02:53:17;;;;;;;8.05;5.57;;;12.40;99.90;;;;;;5010937;28;20034;-67
2022/01/01 02:55:43;;;;;;;7.65;6.20;;;12.30;99.90;;;;;;5013095;28;20075;-68
2022/01/01 02:58:11;;;;;;;7.55;5.47;;;12.40;99.90;;;;;;5012811;28;20474;-69
2022/01/01 03:00:37;;;;;;;11.82;6.07;;;12.20;99.90;;;;;;5011971;28;20113;-68
2022/01/01 03:03:03;;;;;;;10.10;6.70;;;12.20;99.90;;;;;;5012446;28;20049;-68
2022/01/01 03:05:30;;;;;;;9.63;5.90;;;12.30;99.90;;;;;;5013294;28;20446;-68
2022/01/01 03:07:56;;;;;;;9.05;5.72;;;12.20;99.90;;;;;;5013062;28;20032;-70
2022/01/01 03:10:23;;;;;;;9.80;6.55;;;12.30;99.90;;;;;;5011788;28;20368;-67
2022/01/01 03:12:48;;;;;;;9.48;6.05;;;12.30;99.90;;;;;;5013769;28;20403;-66
2022/01/01 03:15:14;;;;;;;9.00;5.95;;;12.30;99.90;;;;;;5012734;28;20022;-67
2022/01/01 03:17:40;;;;;;;10.88;6.93;;;12.30;99.90;;;;;;5014310;28;20109;-69
2022/01/01 03:20:07;;;;;;;10.88;5.80;;;12.20;99.90;;;;;;5012459;28;20485;-67
2022/01/01 03:22:32;;;;;;;7.38;6.18;;;12.20;99.90;;;;;;5011515;28;20022;-67
2022/01/01 03:24:58;;;;;;;9.95;6.53;;;12.30;99.90;;;;;;5011269;28;20053;-67
2022/01/01 03:27:24;;;;;;;10.00;6.85;;;12.30;99.90;;;;;;5013085;28;20454;-67
2022/01/01 03:29:49;;;;;;;9.15;6.88;;;12.30;99.90;;;;;;5012902;28;20022;-67
2022/01/01 03:32:15;;;;;;;9.38;6.95;;;12.30;99.90;;;;;;5012430;28;20061;-68
2022/01/01 03:34:42;;;;;;;10.48;7.80;;;12.20;99.90;;;;;;5013521;28;20026;-68
2022/01/01 03:37:07;;;;;;;9.63;6.38;;;12.20;99.90;;;;;;5011815;28;20029;-67
2022/01/01 03:39:34;;;;;;;11.07;6.85;;;12.20;99.90;;;;;;5013433;28;20022;-67
2022/01/01 03:42:00;;;;;;;10.60;7.07;;;12.20;99.90;;;;;;5011595;28;20161;-66
2022/01/01 03:44:26;;;;;;;10.48;7.80;;;12.20;99.90;;;;;;5012029;28;20026;-66
2022/01/01 03:46:59;;;;;;;11.40;7.78;;;12.20;99.90;;;;;;5011351;28;20021;-66
2022/01/01 03:49:25;;;;;;;13.38;7.22;;;12.10;99.90;;;;;;5012900;28;20513;-66
2022/01/01 03:51:50;;;;;;;13.90;8.75;;;12.10;99.90;;;;;;5016179;28;20109;-68
2022/01/01 03:54:16;;;;;;;11.90;8.38;;;12.10;99.90;;;;;;5015497;28;20116;-66
2022/01/01 03:56:42;;;;;;;14.73;8.82;;;12.10;99.90;;;;;;5015027;28;20022;-66
2022/01/01 03:59:08;;;;;;;12.15;8.38;;;12.10;99.90;;;;;;5015245;28;20375;-66
2022/01/01 04:01:34;;;;;;;11.77;8.30;;;12.00;99.90;;;;;;5015663;28;20025;-66
2022/01/01 04:03:59;;;;;;;11.45;7.90;;;12.00;99.90;;;;;;5015513;28;20045;-69
2022/01/01 04:06:25;;;;;;;11.68;7.82;;;12.00;99.90;;;;;;5014422;28;20022;-66
2022/01/01 04:08:51;;;;;;;14.68;9.65;;;12.10;99.90;;;;;;5015918;28;20021;-68
2022/01/01 04:11:16;;;;;;;12.80;8.68;;;12.10;99.90;;;;;;5015381;28;20033;-67
2022/01/01 04:13:42;;;;;;;11.85;8.43;;;12.10;99.90;;;;;;5015700;28;20029;-67
2022/01/01 04:16:08;;;;;;;13.73;9.05;;;12.10;99.90;;;;;;5015163;28;20052;-67
2022/01/01 04:18:39;;;;;;;12.32;7.82;;;12.10;99.90;;;;;;5014307;28;20026;-69
2022/01/01 04:21:07;;;;;;;13.25;8.88;;;12.10;99.90;;;;;;5013787;28;20026;-67
2022/01/01 04:23:32;;;;;;;14.50;9.25;;;12.10;99.90;;;;;;5014499;28;20125;-68
2022/01/01 04:25:58;;;;;;;13.13;8.75;;;12.10;99.90;;;;;;5014406;28;20131;-69
2022/01/01 04:28:24;;;;;;;12.90;8.65;;;12.10;99.90;;;;;;5013806;28;20022;-66
2022/01/01 04:30:49;;;;;;;14.35;8.77;;;12.10;99.90;;;;;;5015205;28;20046;-68
2022/01/01 04:33:15;;;;;;;13.30;7.90;;;12.10;99.90;;;;;;5013805;28;20026;-66
2022/01/01 04:35:41;;;;;;;12.63;8.98;;;12.10;99.90;;;;;;5016258;28;20022;-67
2022/01/01 04:38:16;;;;;;;14.60;9.40;;;12.10;99.90;;;;;;5013765;28;20022;-66
2022/01/01 04:40:42;;;;;;;12.25;8.50;;;12.20;99.90;;;;;;5014090;28;20443;-67
2022/01/01 04:43:07;;;;;;;11.35;8.63;;;12.20;99.90;;;;;;5014735;28;20026;-67
2022/01/01 04:45:33;;;;;;;11.88;8.13;;;12.30;99.90;;;;;;5015398;28;20107;-73
2022/01/01 04:47:59;;;;;;;12.73;8.60;;;12.30;99.90;;;;;;5015239;28;20030;-68
2022/01/01 04:50:24;;;;;;;12.43;8.23;;;12.30;99.90;;;;;;5014840;28;20017;-70
2022/01/01 04:52:51;;;;;;;11.73;8.15;;;12.20;99.90;;;;;;5015251;28;20108;-66
2022/01/01 04:55:17;;;;;;;11.52;8.20;;;12.20;99.90;;;;;;5014131;28;20478;-66
2022/01/01 04:57:42;;;;;;;11.85;7.72;;;12.30;99.90;;;;;;5013309;28;20022;-65
2022/01/01 05:00:16;;;;;;;11.27;7.97;;;12.30;99.90;;;;;;5012802;28;20029;-65
2022/01/01 05:02:42;;;;;;;11.55;8.57;;;12.20;99.90;;;;;;5012436;28;20022;-65
2022/01/01 05:05:08;;;;;;;10.27;7.47;;;12.20;99.90;;;;;;5011536;28;20022;-64
2022/01/01 05:07:33;;;;;;;10.52;7.90;;;12.20;99.90;;;;;;5013292;28;20451;-65
2022/01/01 05:09:59;;;;;;;12.50;7.68;;;12.20;99.90;;;;;;5013880;28;20491;-67
2022/01/01 05:12:25;;;;;;;11.15;7.55;;;12.20;99.90;;;;;;5013435;28;20025;-66
2022/01/01 05:14:51;;;;;;;12.60;8.00;;;12.30;99.90;;;;;;5013772;28;20033;-65
2022/01/01 05:17:18;;;;;;;11.05;8.00;;;12.30;99.90;;;;;;5013031;28;20030;-65
2022/01/01 05:19:44;;;;;;;11.93;7.53;;;12.30;99.90;;;;;;5013580;28;20143;-66
2022/01/01 05:22:09;;;;;;;10.77;7.20;;;12.30;99.90;;;;;;5013489;28;20161;-66
2022/01/01 05:24:35;;;;;;;32.15;10.13;;;12.30;99.90;;;;;;5014532;28;20030;-65
2022/01/01 05:27:01;;;;;;;12.32;7.47;;;12.30;99.90;;;;;;5013054;28;20026;-66
2022/01/01 05:29:26;;;;;;;10.35;7.15;;;12.20;99.90;;;;;;5013109;28;20433;-65
2022/01/01 05:31:52;;;;;;;12.38;7.95;;;12.30;99.90;;;;;;5014815;28;20379;-71
2022/01/01 05:34:18;;;;;;;9.55;6.55;;;12.30;99.90;;;;;;5013429;28;20084;-66
2022/01/01 05:36:43;;;;;;;13.23;7.40;;;12.30;99.90;;;;;;5014340;28;20363;-65
2022/01/01 05:39:09;;;;;;;10.20;7.47;;;12.30;99.90;;;;;;5014885;28;20428;-66
2022/01/01 05:41:35;;;;;;;11.45;6.78;;;12.30;99.90;;;;;;5014880;28;20045;-69
2022/01/01 05:44:01;;;;;;;12.32;6.88;;;12.40;99.90;;;;;;5014661;28;20444;-67
2022/01/01 05:46:29;;;;;;;11.88;6.90;;;12.30;99.90;;;;;;5013072;28;20109;-65
2022/01/01 05:48:55;;;;;;;12.57;7.28;;;12.30;99.90;;;;;;5013481;28;20026;-67
2022/01/01 05:51:21;;;;;;;14.95;7.45;;;12.30;99.90;;;;;;5013552;28;20071;-66
2022/01/01 05:53:46;;;;;;;12.95;7.53;;;12.50;99.90;;;;;;5013105;28;20542;-67
2022/01/01 05:56:12;;;;;;;11.23;7.35;;;12.40;99.90;;;;;;5013378;28;20022;-67
2022/01/01 05:58:38;;;;;;;12.30;8.05;;;12.40;99.90;;;;;;5012889;28;20021;-65
2022/01/01 06:01:03;;;;;;;13.57;8.38;;;12.30;99.90;;;;;;5013891;28;20105;-71
2022/01/01 06:03:29;;;;;;;11.55;7.72;;;12.30;99.90;;;;;;5013225;28;20030;-67
2022/01/01 06:05:54;;;;;;;14.55;8.70;;;12.30;99.90;;;;;;5013845;28;20482;-71
2022/01/01 06:08:20;;;;;;;11.50;7.47;;;12.30;99.90;;;;;;5011873;28;20422;-66
2022/01/01 06:10:46;;;;;;;11.30;8.02;;;12.30;99.90;;;;;;5012461;28;20084;-68
2022/01/01 06:13:11;;;;;;;12.77;8.23;;;12.30;99.90;;;;;;5011541;28;20034;-66
2022/01/01 06:15:37;;;;;;;11.75;7.93;;;12.30;99.90;;;;;;5013679;28;20022;-65
2022/01/01 06:18:03;;;;;;;14.05;8.45;;;12.20;99.90;;;;;;5013388;28;20030;-66
2022/01/01 06:20:29;;;;;;;13.00;8.77;;;12.10;99.90;;;;;;5011775;28;20022;-66
2022/01/01 06:22:54;;;;;;;11.27;8.07;;;12.10;99.90;;;;;;5013973;28;20407;-66
2022/01/01 06:25:20;;;;;;;14.75;8.88;;;12.20;99.90;;;;;;5012164;28;20022;-66
2022/01/01 06:27:46;;;;;;;13.35;8.55;;;12.10;99.90;;;;;;5013608;28;20022;-65
2022/01/01 06:30:12;;;;;;;14.40;8.23;;;12.00;99.90;;;;;;5011109;28;20045;-67
2022/01/01 06:32:37;;;;;;;11.52;8.32;;;12.00;99.90;;;;;;5012413;28;20026;-68
2022/01/01 06:35:04;;;;;;;24.45;9.60;;;12.00;99.90;;;;;;5013913;28;20033;-68
2022/01/01 06:37:29;;;;;;;14.43;9.60;;;12.00;99.90;;;;;;5011897;28;20021;-67
2022/01/01 06:39:55;;;;;;;14.60;9.00;;;11.90;99.90;;;;;;5012103;28;20350;-66
2022/01/01 06:42:21;;;;;;;14.70;8.65;;;11.80;99.90;;;;;;5011275;28;20153;-66
2022/01/01 06:44:46;;;;;;;13.60;9.18;;;11.80;99.90;;;;;;5011073;28;20030;-66
2022/01/01 06:47:12;;;;;;;13.52;8.63;;;11.80;99.90;;;;;;5011477;28;20029;-67
2022/01/01 06:49:38;;;;;;;14.15;8.57;;;11.60;99.90;;;;;;5011934;28;20028;-66
2022/01/01 06:52:04;;;;;;;13.98;8.85;;;11.60;99.90;;;;;;5013221;28;20105;-67
2022/01/01 06:54:30;;;;;;;14.35;9.50;;;11.60;99.90;;;;;;5012182;28;20434;-66
2022/01/01 06:56:56;;;;;;;14.98;9.77;;;11.60;99.90;;;;;;5013515;28;20021;-67
2022/01/01 06:59:22;;;;;;;12.95;9.20;;;11.60;99.90;;;;;;5012752;28;20503;-67
2022/01/01 07:01:48;;;;;;;16.15;8.95;;;11.60;99.90;;;;;;5014083;28;20109;-66
2022/01/01 07:04:14;;;;;;;11.52;8.60;;;11.70;99.90;;;;;;5011513;28;20030;-66
2022/01/01 07:06:39;;;;;;;12.32;8.85;;;11.60;99.90;;;;;;5012872;28;20022;-67
2022/01/01 07:09:06;;;;;;;15.55;9.52;;;11.80;99.90;;;;;;5013061;28;20022;-66
2022/01/01 07:11:32;;;;;;;14.70;9.55;;;11.70;99.90;;;;;;5011295;28;20022;-66
2022/01/01 07:13:57;;;;;;;12.75;8.98;;;11.80;99.90;;;;;;5013081;28;20029;-66
2022/01/01 07:16:23;;;;;;;14.27;9.13;;;11.80;99.90;;;;;;5012850;28;20029;-66
2022/01/01 07:18:48;;;;;;;10.82;8.60;;;11.70;99.90;;;;;;5014442;28;20025;-67
2022/01/01 07:21:14;;;;;;;13.95;8.98;;;11.70;99.90;;;;;;5011423;28;20018;-66
2022/01/01 07:23:40;;;;;;;13.23;9.35;;;11.70;99.90;;;;;;5012589;28;20030;-66
2022/01/01 07:26:05;;;;;;;15.15;10.40;;;11.60;99.90;;;;;;5015832;28;20040;-66
2022/01/01 07:28:31;;;;;;;11.38;8.82;;;11.60;99.90;;;;;;5016170;28;20354;-66
2022/01/01 07:30:57;;;;;;;16.67;9.70;;;11.60;99.90;;;;;;5014908;28;20124;-66
2022/01/01 07:33:22;;;;;;;10.93;8.60;;;11.60;99.90;;;;;;5014997;28;20026;-65
2022/01/01 07:35:48;;;;;;;15.10;9.60;;;11.70;99.90;;;;;;5016672;28;20101;-66
2022/01/01 07:38:14;;;;;;;12.35;8.88;;;11.70;99.90;;;;;;5015316;28;20026;-67
2022/01/01 07:40:39;;;;;;;13.10;9.63;;;11.70;99.90;;;;;;5015905;28;20520;-68
2022/01/01 07:43:16;;;;;;;16.05;9.40;;;11.70;99.90;;;;;;5016359;28;20113;-66
2022/01/01 07:45:43;;;;;;;13.73;9.20;;;11.70;99.90;;;;;;5016697;28;20448;-66
2022/01/01 07:48:09;;;;;;;13.88;9.50;;;11.70;99.90;;;;;;5016579;28;20022;-65
2022/01/01 07:50:35;;;;;;;16.98;9.77;;;11.70;99.90;;;;;;5014692;28;20025;-66
2022/01/01 07:53:01;;;;;;;13.57;9.73;;;11.70;99.90;;;;;;5014907;28;20026;-65
2022/01/01 07:55:27;;;;;;;14.50;10.48;;;11.70;99.90;;;;;;5014426;28;20383;-65
2022/01/01 07:57:53;;;;;;;13.20;10.05;;;11.70;99.90;;;;;;5015012;28;20028;-66
2022/01/01 08:00:19;;;;;;;17.73;10.65;;;11.60;99.90;;;;;;5015667;28;20440;-66
2022/01/01 08:02:47;;;;;;;15.60;10.88;;;11.60;99.90;;;;;;5015875;28;20099;-65
2022/01/01 08:05:15;;;;;;;16.60;9.35;;;11.50;99.90;;;;;;5016371;28;20165;-65
2022/01/01 08:07:41;;;;;;;14.52;10.07;;;11.50;99.90;;;;;;5014868;28;20462;-66
2022/01/01 08:10:07;;;;;;;14.73;10.07;;;11.50;99.90;;;;;;5016542;28;20022;-67
2022/01/01 08:12:33;;;;;;;15.90;9.57;;;11.50;99.90;;;;;;5016703;28;20028;-68
2022/01/01 08:14:59;;;;;;;14.95;9.60;;;11.40;99.90;;;;;;5014788;28;20120;-67
2022/01/01 08:17:25;;;;;;;16.65;10.95;;;11.50;99.90;;;;;;5014136;28;20026;-66
2022/01/01 08:19:51;;;;;;;14.75;9.45;;;11.60;99.90;;;;;;5015943;28;20029;-68
2022/01/01 08:22:17;;;;;;;14.45;9.32;;;11.60;99.90;;;;;;5015372;28;20041;-66
2022/01/01 08:24:43;;;;;;;16.10;10.02;;;11.60;99.90;;;;;;5017228;28;20038;-67
2022/01/01 08:27:09;;;;;;;15.18;10.43;;;11.60;99.90;;;;;;5016567;28;20084;-65
2022/01/01 08:29:36;;;;;;;12.23;8.90;;;11.60;99.90;;;;;;5016217;28;20034;-65
2022/01/01 08:32:02;;;;;;;13.50;9.65;;;11.60;99.90;;;;;;5017709;28;20045;-66
2022/01/01 08:34:28;;;;;;;15.65;8.80;;;11.60;99.90;;;;;;5015605;28;20022;-66
2022/01/01 08:36:53;;;;;;;14.45;8.48;;;11.50;99.90;;;;;;5014018;28;20478;-67
2022/01/01 08:39:19;;;;;;;14.27;9.73;;;11.60;99.90;;;;;;5013561;28;20084;-66
2022/01/01 08:41:46;;;;;;;15.63;9.90;;;11.70;99.90;;;;;;5015147;28;20522;-66
2022/01/01 08:44:12;;;;;;;16.42;11.15;;;11.60;99.90;;;;;;5013494;28;20083;-65
2022/01/01 08:46:38;;;;;;;14.43;9.13;;;11.60;99.90;;;;;;5014771;28;20067;-66
2022/01/01 08:49:05;;;;;;;13.48;8.90;;;11.60;99.90;;;;;;5015434;28;20018;-68
2022/01/01 08:51:33;;;;;;;15.77;10.57;;;11.70;99.90;;;;;;5013541;28;20377;-72
2022/01/01 08:53:58;;;;;;;13.30;9.30;;;11.60;99.90;;;;;;5014058;28;20460;-67
2022/01/01 08:56:24;;;;;;;14.90;9.52;;;11.50;99.90;;;;;;5015262;28;20105;-67
2022/01/01 08:58:50;;;;;;;11.45;8.13;;;11.70;99.90;;;;;;5015144;28;20068;-65
2022/01/01 09:01:16;;;;;;;12.60;8.48;;;11.80;99.90;;;;;;5013746;28;20022;-66
2022/01/01 09:03:42;;;;;;;11.80;8.57;;;11.80;99.90;;;;;;5013347;28;20088;-67
2022/01/01 09:06:08;;;;;;;12.48;8.68;;;11.70;99.90;;;;;;5014090;28;20422;-67
2022/01/01 09:08:37;;;;;;;13.02;8.95;;;11.70;99.90;;;;;;5013209;28;20056;-65
2022/01/01 09:11:03;;;;;;;16.40;8.65;;;11.80;99.90;;;;;;5013560;28;20033;-66
2022/01/01 09:13:29;;;;;;;12.48;8.88;;;11.70;99.90;;;;;;5014471;28;20121;-67
2022/01/01 09:15:58;;;;;;;11.55;8.30;;;11.70;99.90;;;;;;5015897;28;20380;-68
2022/01/01 09:18:24;;;;;;;11.95;8.55;;;11.70;99.90;;;;;;5014385;28;20467;-66
2022/01/01 09:20:50;;;;;;;12.00;8.10;;;11.80;99.90;;;;;;5014053;28;20014;-67
2022/01/01 09:23:16;;;;;;;12.52;8.60;;;11.80;99.90;;;;;;5015292;28;20367;-66
2022/01/01 09:25:45;;;;;;;15.13;8.75;;;11.70;99.90;;;;;;4997521;28;20076;-66
2022/01/01 09:28:11;;;;;;;11.93;8.55;;;11.80;99.90;;;;;;5016452;28;20429;-66
2022/01/01 09:30:36;;;;;;;13.57;8.68;;;11.80;99.90;;;;;;5007734;28;20056;-66
2022/01/01 09:33:03;;;;;;;13.35;9.25;;;11.70;99.90;;;;;;5010993;28;20030;-67
2022/01/01 09:35:29;;;;;;;15.40;8.93;;;11.70;99.90;;;;;;4994920;28;20018;-66
2022/01/01 09:37:55;;;;;;;15.43;9.30;;;11.60;99.90;;;;;;4995315;28;20100;-70
2022/01/01 09:40:20;;;;;;;13.95;9.30;;;11.70;99.90;;;;;;4994510;28;20023;-67
2022/01/01 09:42:47;;;;;;;15.32;8.93;;;11.70;99.90;;;;;;4994495;28;20026;-68
2022/01/01 09:45:13;;;;;;;15.50;9.80;;;11.70;99.90;;;;;;4994696;28;20380;-66
2022/01/01 09:47:39;;;;;;;12.20;8.52;;;11.80;99.90;;;;;;4993453;28;20015;-66
2022/01/01 09:50:06;;;;;;;14.43;8.48;;;11.80;99.90;;;;;;4995024;28;20022;-66
2022/01/01 09:52:33;;;;;;;14.85;9.13;;;11.90;99.90;;;;;;5012365;28;20096;-69
2022/01/01 09:54:58;;;;;;;16.15;10.10;;;11.80;99.90;;;;;;5015303;28;20041;-61
2022/01/01 09:57:24;;;;;;;13.95;9.45;;;11.80;99.90;;;;;;5012335;28;20026;-67
2022/01/01 09:59:52;;;;;;;13.13;8.82;;;12.40;99.90;;;;;;5015324;28;20018;-67
2022/01/01 10:02:18;;;;;;;14.57;8.52;;;12.10;99.90;;;;;;5013431;28;20030;-66
2022/01/01 10:04:48;;;;;;;13.68;9.05;;;11.90;99.90;;;;;;5013157;28;20033;-67
2022/01/01 10:07:14;;;;;;;11.68;8.65;;;11.80;99.90;;;;;;5014622;28;20021;-69
2022/01/01 10:09:41;;;;;;;14.27;9.43;;;11.70;99.90;;;;;;5016262;28;20104;-68
2022/01/01 10:12:10;;;;;;;15.40;9.32;;;11.70;99.90;;;;;;5017324;28;20028;-67
2022/01/01 10:14:38;;;;;;;13.93;8.55;;;11.80;99.90;;;;;;5013050;28;20030;-68
2022/01/01 10:17:18;;;;;;;17.05;9.48;;;11.80;99.90;;;;;;5013319;28;20068;-66
2022/01/01 10:19:44;;;;;;;14.70;10.02;;;11.80;99.90;;;;;;5013127;28;20029;-65
2022/01/01 10:22:13;;;;;;;14.95;9.88;;;11.80;99.90;;;;;;5004930;28;20048;-66
2022/01/01 10:27:43;;;;;;;13.43;8.85;;;11.70;99.90;;;;;;5013326;28;20037;-67
2022/01/01 10:30:20;;;;;;;12.32;9.00;;;11.70;99.90;;;;;;5007941;28;20054;-66
2022/01/01 10:33:05;;;;;;;14.48;9.25;;;11.80;99.90;;;;;;5008155;28;20388;-67
2022/01/01 10:35:56;;;;;;;15.65;10.30;;;11.90;99.90;;;;;;5009949;28;20818;-68
2022/01/01 10:38:26;;;;;;;14.70;9.85;;;11.90;99.90;;;;;;5026870;28;20026;-71
2022/01/01 10:41:09;;;;;;;17.80;10.32;;;11.80;99.90;;;;;;5010187;28;20022;-66
2022/01/01 10:43:41;;;;;;;15.15;10.35;;;11.90;99.90;;;;;;5005948;28;20506;-69
2022/01/01 10:46:09;;;;;;;;;;;11.80;99.90;;;;;;5010171;28;20030;-66
2022/01/01 10:51:09;;;;;;;15.68;10.48;;;12.00;99.90;;;;;;5009264;28;20026;-68
2022/01/01 10:53:35;;;;;;;18.65;10.85;;;12.20;99.90;;;;;;5011782;28;20030;-68
2022/01/01 10:56:05;;;;;;;15.55;10.43;;;12.30;99.90;;;;;;5011284;28;20383;-67
2022/01/01 10:58:35;;;;;;;17.05;11.27;;;12.30;99.90;;;;;;5009755;28;20099;-67
2022/01/01 11:01:08;;;;;;;16.40;11.82;;;12.40;99.90;;;;;;4996920;28;20022;-71
2022/01/01 11:03:39;;;;;;;17.42;11.90;;;12.20;99.90;;;;;;5008348;28;20456;-67
2022/01/01 11:06:11;;;;;;;16.67;10.77;;;12.30;99.90;;;;;;5001389;28;20034;-69
2022/01/01 11:08:40;;;;;;;15.50;9.60;;;12.20;99.90;;;;;;5028951;28;20028;-63
2022/01/01 11:11:06;;;;;;;17.35;12.18;;;12.60;99.90;;;;;;5011890;28;20032;-67
2022/01/01 11:13:33;;;;;;;17.80;10.98;;;12.80;99.90;;;;;;5024091;28;20045;-69
2022/01/01 11:15:59;;;;;;;19.73;11.50;;;12.60;99.90;;;;;;5011804;28;20050;-66
2022/01/01 11:18:25;;;;;;;16.73;10.70;;;12.30;99.90;;;;;;5027021;28;20025;-69
2022/01/01 11:20:52;;;;;;;16.70;10.93;;;12.40;99.90;;;;;;5011132;28;20026;-69
2022/01/01 11:23:19;;;;;;;15.93;9.75;;;12.30;99.90;;;;;;5014812;28;20045;-74
2022/01/01 11:25:45;;;;;;;15.55;11.50;;;12.20;99.90;;;;;;5012956;28;20334;-69
2022/01/01 11:28:14;;;;;;;15.77;10.93;;;12.30;99.90;;;;;;5014612;28;20022;-69
2022/01/01 11:30:48;;;;;;;14.88;10.00;;;12.30;99.90;;;;;;5013669;28;20471;-70
2022/01/01 11:33:17;;;;;;;15.57;9.50;;;12.20;99.90;;;;;;5011637;28;20037;-70
2022/01/01 11:35:56;;;;;;;16.55;10.30;;;12.20;99.90;;;;;;5011861;28;20108;-67
2022/01/01 11:38:24;;;;;;;13.23;8.63;;;12.20;99.90;;;;;;5010045;28;20014;-68
2022/01/01 11:41:06;;;;;;;17.27;8.95;;;12.20;99.90;;;;;;5011742;28;20026;-68
2022/01/01 11:43:53;;;;;;;21.35;9.93;;;12.20;99.90;;;;;;5011976;28;20029;-65
2022/01/01 11:46:25;;;;;;;14.18;9.07;;;12.30;99.90;;;;;;5001787;28;20452;-67
2022/01/01 11:48:56;;;;;;;16.65;10.40;;;12.30;99.90;;;;;;5011991;28;20100;-66
2022/01/01 11:51:31;;;;;;;17.38;11.02;;;12.30;99.90;;;;;;5028242;28;20030;-67
2022/01/01 11:54:35;;;;;;;14.18;9.63;;;12.40;99.90;;;;;;5011227;28;20112;-69
2022/01/01 11:57:07;;;;;;;15.52;9.90;;;12.30;99.90;;;;;;5006728;28;20026;-68
2022/01/01 11:59:44;;;;;;;13.70;9.00;;;12.30;99.90;;;;;;5011637;28;20022;-67
2022/01/01 12:02:19;;;;;;;14.68;9.82;;;12.40;99.90;;;;;;5010930;28;20028;-68
2022/01/01 12:04:55;;;;;;;17.08;9.13;;;12.40;99.90;;;;;;5011628;28;20368;-68
2022/01/01 12:07:22;;;;;;;15.10;9.63;;;12.40;99.90;;;;;;5011640;28;20418;-68
2022/01/01 12:10:07;;;;;;;14.23;8.85;;;12.40;99.90;;;;;;5010766;28;20303;-66
2022/01/01 12:12:46;;;;;;;13.82;9.60;;;12.40;99.90;;;;;;5014173;28;20030;-66
2022/01/01 12:15:24;;;;;;;13.90;9.20;;;12.30;99.90;;;;;;5016455;28;20448;-66
2022/01/01 12:17:59;;;;;;;12.02;8.43;;;12.50;99.90;;;;;;5014857;28;20048;-68
2022/01/01 12:20:35;;;;;;;16.55;9.48;;;12.40;99.90;;;;;;5014244;28;20022;-67
2022/01/01 12:23:10;;;;;;;13.63;9.32;;;12.30;99.90;;;;;;5015379;28;20049;-68
2022/01/01 12:25:37;;;;;;;12.68;8.63;;;12.30;99.90;;;;;;5014788;28;20097;-66
2022/01/01 12:28:07;;;;;;;11.63;8.50;;;12.50;99.90;;;;;;5006769;28;20018;-66
2022/01/01 12:30:51;;;;;;;11.88;8.32;;;12.40;99.90;;;;;;4996707;28;20070;-66
2022/01/01 12:33:46;;;;;;;14.38;8.15;;;12.40;99.90;;;;;;4997199;28;20037;-68
2022/01/01 12:36:17;;;;;;;12.10;7.93;;;12.50;99.90;;;;;;5012849;28;20034;-68
2022/01/01 12:38:53;;;;;;;11.77;9.27;;;12.50;99.90;;;;;;5015934;28;20029;-71
2022/01/01 12:41:52;;;;;;;12.52;8.75;;;12.50;99.90;;;;;;5015018;28;20267;-68
2022/01/01 12:44:21;;;;;;;11.23;8.23;;;12.40;99.90;;;;;;5015115;28;20124;-68
2022/01/01 12:46:51;;;;;;;16.73;8.75;;;12.50;99.90;;;;;;5004434;28;20053;-67
2022/01/01 12:49:17;;;;;;;12.02;8.60;;;12.30;99.90;;;;;;5016312;28;20030;-70